Terminal Aerodrome Forecast
Issued by NWS

Current Version | Previous Version | Text Only | Print | Product List | Glossary On
Versions: 1 2 3 4 5 6 7 8 9 10 11 12 13 14 15 16 17
000
FTAK31 PANC 211746
TAFADL
TAF
PADL 211746Z 2118/2218 32007KT P6SM VCSH SCT035 BKN050
     FM220000 33012G20KT 5SM -SHRA SCT025 BKN035 OVC050
     FM220600 33004KT P6SM VCSH BKN050 OVC080
     FM221700 08008KT P6SM BKN050=

USA.gov is the U.S. government's official web portal to all federal, state and local government web resources and services.